createdAt,value
2018-11-13T00:01:13.537Z,12.90
2018-11-13T00:03:41.663Z,12.93
2018-11-13T00:06:09.765Z,14.43
2018-11-13T00:08:37.886Z,12.67
2018-11-13T00:11:06.000Z,13.17
2018-11-13T00:23:20.010Z,13.97
2018-11-13T00:25:48.137Z,13.97
2018-11-13T00:28:16.310Z,15.03
2018-11-13T00:30:44.417Z,14.33
2018-11-13T00:33:12.542Z,12.73
2018-11-13T00:35:40.652Z,14.47
2018-11-13T00:38:08.758Z,15.30
2018-11-13T00:40:36.898Z,15.03
2018-11-13T00:43:05.072Z,14.23
2018-11-13T00:45:33.281Z,14.43
2018-11-13T00:48:01.358Z,15.37
2018-11-13T00:50:29.505Z,14.93
2018-11-13T00:52:57.663Z,15.10
2018-11-13T00:55:25.809Z,15.67
2018-11-13T00:57:54.230Z,15.30
2018-11-13T01:00:22.390Z,15.90
2018-11-13T01:02:50.506Z,14.63
2018-11-13T01:05:19.935Z,16.57
2018-11-13T01:07:48.913Z,15.00
2018-11-13T01:10:17.686Z,16.73
2018-11-13T02:13:10.074Z,14.57
2018-11-13T04:13:35.285Z,18.17
2018-11-13T04:16:03.504Z,17.50
2018-11-13T05:19:18.235Z,22.37
2018-11-13T06:16:48.110Z,22.17
2018-11-13T06:22:08.986Z,23.57
2018-11-13T06:24:37.103Z,24.23
2018-11-13T06:27:05.414Z,24.50
2018-11-13T06:29:33.561Z,23.47
2018-11-13T06:32:01.665Z,23.60
2018-11-13T06:34:29.778Z,23.43
2018-11-13T06:36:57.879Z,23.90
2018-11-13T06:39:25.993Z,23.50
2018-11-13T06:41:54.117Z,24.43
2018-11-13T06:44:22.319Z,23.57
2018-11-13T06:46:50.452Z,24.43
2018-11-13T06:49:18.573Z,23.90
2018-11-13T06:51:46.708Z,23.70
2018-11-13T06:54:26.262Z,25.17
2018-11-13T06:56:54.377Z,24.00
2018-11-13T06:59:22.486Z,25.83
2018-11-13T07:01:50.605Z,23.83
2018-11-13T07:04:18.775Z,24.97
2018-11-13T07:06:47.037Z,25.47
2018-11-13T07:09:15.130Z,24.10
2018-11-13T07:11:43.239Z,25.63
2018-11-13T07:29:14.487Z,23.87
2018-11-13T07:31:42.623Z,24.20
2018-11-13T07:34:10.798Z,24.23
2018-11-13T07:36:38.841Z,25.13
2018-11-13T07:39:08.721Z,24.00
2018-11-13T07:41:36.811Z,23.47
2018-11-13T07:44:04.941Z,28.40
2018-11-13T07:46:33.131Z,25.27
2018-11-13T07:49:01.251Z,25.17
2018-11-13T07:51:29.529Z,24.97
2018-11-13T07:53:57.777Z,25.03
2018-11-13T07:56:25.872Z,26.33
2018-11-13T07:58:53.970Z,26.37
2018-11-13T08:01:22.116Z,24.63
2018-11-13T08:03:50.265Z,26.33
2018-11-13T08:06:18.394Z,25.77
2018-11-13T08:08:46.551Z,24.53
2018-11-13T08:11:14.670Z,25.13
2018-11-13T08:27:17.862Z,25.27
2018-11-13T08:29:46.058Z,26.70
2018-11-13T08:32:14.774Z,25.80
2018-11-13T08:34:42.977Z,26.57
2018-11-13T08:37:11.058Z,25.33
2018-11-13T08:39:39.194Z,25.00
2018-11-13T08:42:07.276Z,25.17
2018-11-13T08:44:35.432Z,25.07
2018-11-13T08:47:03.549Z,26.80
2018-11-13T08:49:31.683Z,27.23
2018-11-13T08:51:59.788Z,26.87
2018-11-13T08:54:27.884Z,26.93
2018-11-13T08:56:56.007Z,25.27
2018-11-13T08:59:24.195Z,25.77
2018-11-13T09:01:52.264Z,26.07
2018-11-13T09:04:20.415Z,25.93
2018-11-13T09:06:48.559Z,24.47
2018-11-13T09:09:16.721Z,27.30
2018-11-13T09:11:44.953Z,25.83
2018-11-13T09:17:25.532Z,25.50
2018-11-13T09:19:53.695Z,24.63
2018-11-13T09:22:21.805Z,24.63
2018-11-13T09:24:49.950Z,24.53
2018-11-13T09:27:18.145Z,25.13
2018-11-13T09:29:46.367Z,26.00
2018-11-13T09:32:14.405Z,23.50
2018-11-13T09:34:42.583Z,23.83
2018-11-13T09:37:10.722Z,25.47
2018-11-13T09:39:38.810Z,25.30
2018-11-13T09:42:06.986Z,26.07
2018-11-13T09:44:35.138Z,25.80
2018-11-13T09:47:03.242Z,27.17
2018-11-13T09:49:31.358Z,24.77
2018-11-13T09:51:59.546Z,26.17
2018-11-13T09:54:27.650Z,27.27
2018-11-13T09:56:55.774Z,26.70
2018-11-13T09:59:23.897Z,26.20
2018-11-13T10:01:52.478Z,26.03
2018-11-13T10:04:20.722Z,25.93
2018-11-13T10:06:48.256Z,26.27
2018-11-13T10:09:23.078Z,26.20
2018-11-13T10:11:51.226Z,24.47
2018-11-13T10:14:25.585Z,24.27
2018-11-13T11:14:26.358Z,20.13
2018-11-13T11:16:59.930Z,22.27
2018-11-13T13:23:10.257Z,14.23
2018-11-13T13:25:38.465Z,14.73
2018-11-13T13:28:06.625Z,16.03
2018-11-13T13:30:34.735Z,15.23
2018-11-13T13:33:02.817Z,14.23
2018-11-13T13:35:48.789Z,13.87
2018-11-13T13:38:16.893Z,14.07
2018-11-13T13:40:46.054Z,13.60
2018-11-13T13:43:14.839Z,14.33
2018-11-13T13:45:43.740Z,15.60
2018-11-13T13:48:11.865Z,15.53
2018-11-13T13:50:40.231Z,13.90
2018-11-13T13:53:09.406Z,12.43
2018-11-13T13:55:37.579Z,16.07
2018-11-13T13:58:05.809Z,14.50
2018-11-13T14:00:33.988Z,14.67
2018-11-13T14:03:02.115Z,15.40
2018-11-13T14:05:30.242Z,16.30
2018-11-13T14:07:58.385Z,11.70
2018-11-13T14:10:26.544Z,15.00
2018-11-13T14:12:54.696Z,17.67
2018-11-13T14:24:01.019Z,16.30
2018-11-13T14:26:29.159Z,16.70
2018-11-13T14:28:57.286Z,15.63
2018-11-13T14:31:25.431Z,15.90
2018-11-13T14:33:53.526Z,15.53
2018-11-13T14:36:21.663Z,16.10
2018-11-13T14:38:49.779Z,16.27
2018-11-13T14:41:17.925Z,16.73
2018-11-13T14:43:46.061Z,16.90
2018-11-13T14:46:14.225Z,18.83
2018-11-13T14:48:42.314Z,17.63
2018-11-13T14:51:10.418Z,20.50
2018-11-13T14:53:38.501Z,15.30
2018-11-13T14:56:06.653Z,8.73
